createdAt,value
2019-02-06T00:01:41.967Z,15.80
2019-02-06T00:04:15.375Z,15.23
2019-02-06T00:06:45.559Z,15.17
2019-02-06T00:09:17.599Z,15.33
2019-02-06T00:11:48.478Z,15.63
2019-02-06T00:14:19.346Z,14.50
2019-02-06T00:16:50.444Z,15.73
2019-02-06T00:19:21.666Z,17.00
2019-02-06T00:21:52.538Z,15.57
2019-02-06T00:24:23.537Z,15.67
2019-02-06T00:26:54.410Z,15.80
2019-02-06T00:29:25.433Z,14.23
2019-02-06T00:31:56.538Z,14.27
2019-02-06T00:34:27.561Z,14.73
2019-02-06T00:36:58.379Z,13.57
2019-02-06T00:39:29.636Z,14.27
2019-02-06T00:42:00.429Z,13.73
2019-02-06T00:44:32.069Z,14.07
2019-02-06T00:47:03.147Z,13.47
2019-02-06T00:49:34.149Z,14.23
2019-02-06T00:52:05.655Z,14.87
2019-02-06T00:54:36.662Z,14.50
2019-02-06T00:57:07.534Z,14.90
2019-02-06T00:59:38.386Z,13.50
2019-02-06T01:02:09.738Z,14.17
2019-02-06T01:04:40.660Z,13.77
2019-02-06T01:07:11.792Z,14.03
2019-02-06T01:09:42.874Z,15.27
2019-02-06T01:12:15.224Z,14.93
2019-02-06T01:14:46.303Z,14.83
2019-02-06T01:17:17.329Z,15.93
2019-02-06T01:19:48.177Z,15.67
2019-02-06T01:22:19.042Z,15.40
2019-02-06T01:24:50.158Z,16.57
2019-02-06T01:27:21.894Z,15.97
2019-02-06T01:29:53.153Z,15.00
2019-02-06T01:32:25.241Z,16.07
2019-02-06T01:34:56.342Z,15.67
2019-02-06T01:37:27.130Z,15.77
2019-02-06T01:39:58.072Z,14.37
2019-02-06T01:42:29.124Z,14.73
2019-02-06T01:45:00.319Z,15.90
2019-02-06T01:47:31.400Z,15.53
2019-02-06T01:50:02.474Z,14.70
2019-02-06T01:52:34.649Z,15.97
2019-02-06T01:55:05.996Z,15.23
2019-02-06T01:57:37.000Z,15.30
2019-02-06T02:00:14.530Z,15.73
2019-02-06T02:02:45.877Z,15.37
2019-02-06T02:05:19.073Z,15.73
2019-02-06T02:07:51.376Z,16.87
2019-02-06T02:10:22.480Z,16.97
2019-02-06T02:12:53.353Z,16.33
2019-02-06T02:15:24.197Z,16.67
2019-02-06T02:17:55.606Z,17.00
2019-02-06T02:20:26.698Z,16.77
2019-02-06T02:22:57.929Z,16.80
2019-02-06T02:25:28.863Z,16.63
2019-02-06T02:28:00.604Z,16.40
2019-02-06T02:30:38.473Z,14.80
2019-02-06T02:33:09.415Z,16.53
2019-02-06T02:35:40.597Z,15.70
2019-02-06T02:38:12.043Z,15.60
2019-02-06T02:40:42.924Z,16.03
2019-02-06T02:43:13.988Z,15.77
2019-02-06T02:45:45.978Z,15.63
2019-02-06T02:48:17.113Z,15.93
2019-02-06T02:50:48.001Z,15.93
2019-02-06T02:53:19.211Z,15.77
2019-02-06T02:55:50.310Z,15.40
2019-02-06T02:58:21.428Z,15.90
2019-02-06T03:01:05.525Z,16.17
2019-02-06T03:03:40.179Z,16.17
2019-02-06T03:06:11.634Z,15.43
2019-02-06T03:08:42.867Z,17.37
2019-02-06T03:11:15.086Z,16.93
2019-02-06T03:13:46.213Z,16.73
2019-02-06T03:16:17.426Z,16.80
2019-02-06T03:18:48.717Z,15.33
2019-02-06T03:21:19.820Z,16.30
2019-02-06T03:23:50.875Z,15.80
2019-02-06T03:26:21.949Z,15.37
2019-02-06T03:28:53.183Z,17.37
2019-02-06T03:31:24.477Z,16.73
2019-02-06T03:33:55.240Z,16.87
2019-02-06T03:36:26.411Z,16.77
2019-02-06T03:38:57.471Z,18.07
2019-02-06T03:41:28.396Z,17.33
2019-02-06T03:43:59.805Z,18.07
2019-02-06T03:46:31.235Z,17.03
2019-02-06T03:49:02.287Z,18.90
2019-02-06T03:51:33.638Z,18.20
2019-02-06T03:54:05.071Z,18.83
2019-02-06T03:56:36.186Z,17.13
2019-02-06T03:59:08.499Z,17.20
2019-02-06T04:01:39.366Z,16.87
2019-02-06T04:04:10.436Z,16.33
2019-02-06T04:06:52.723Z,17.50
2019-02-06T04:09:13.758Z,16.80
2019-02-06T04:11:44.963Z,17.87
2019-02-06T04:14:15.741Z,17.17
2019-02-06T04:16:47.050Z,17.07
2019-02-06T04:19:17.906Z,17.07
2019-02-06T04:21:48.916Z,17.63
2019-02-06T04:24:19.985Z,16.97
2019-02-06T04:26:51.098Z,16.93
2019-02-06T04:29:22.436Z,17.73
2019-02-06T04:31:53.523Z,17.23
2019-02-06T04:34:24.454Z,17.67
2019-02-06T04:37:06.214Z,18.37
2019-02-06T04:39:27.691Z,17.77
2019-02-06T04:41:58.615Z,17.53
2019-02-06T04:44:29.747Z,18.30
2019-02-06T04:47:00.520Z,18.60
2019-02-06T04:49:31.618Z,17.63
2019-02-06T04:52:03.269Z,18.93
2019-02-06T04:54:34.053Z,18.90
2019-02-06T04:57:05.117Z,18.17
2019-02-06T04:59:35.884Z,18.37
2019-02-06T05:02:07.013Z,18.13
2019-02-06T05:04:37.881Z,17.87
2019-02-06T05:07:18.668Z,18.80
2019-02-06T05:09:41.640Z,18.13
2019-02-06T05:12:12.567Z,18.13
2019-02-06T05:14:43.487Z,18.57
2019-02-06T05:17:14.468Z,18.57
2019-02-06T05:19:45.795Z,17.53
2019-02-06T05:22:16.637Z,18.37
2019-02-06T05:24:47.640Z,18.93
2019-02-06T05:27:18.628Z,19.13
2019-02-06T05:29:49.404Z,20.00
2019-02-06T05:32:20.874Z,18.70
2019-02-06T05:34:51.668Z,19.97
2019-02-06T05:37:31.216Z,19.53
2019-02-06T05:39:55.147Z,19.40
2019-02-06T05:42:26.297Z,24.93
2019-02-06T05:44:57.201Z,19.70
2019-02-06T05:47:28.213Z,19.60
2019-02-06T05:49:59.223Z,19.47
2019-02-06T05:52:29.986Z,18.60
2019-02-06T05:55:04.290Z,18.90
2019-02-06T05:57:33.227Z,19.87
2019-02-06T06:00:07.384Z,19.37
2019-02-06T06:02:38.492Z,18.60
2019-02-06T06:05:09.775Z,19.93
2019-02-06T06:07:45.241Z,19.37
2019-02-06T06:10:14.440Z,19.70
2019-02-06T06:12:45.780Z,19.70
2019-02-06T06:15:17.906Z,19.33
2019-02-06T06:17:48.933Z,19.90
2019-02-06T06:20:19.858Z,20.83
2019-02-06T06:22:50.637Z,19.50
2019-02-06T06:25:21.924Z,19.60
2019-02-06T06:27:53.016Z,19.87
2019-02-06T06:30:23.860Z,20.83
2019-02-06T06:32:54.662Z,20.30
2019-02-06T06:35:25.499Z,20.13
2019-02-06T06:38:00.534Z,20.67
2019-02-06T06:40:29.603Z,20.07
2019-02-06T06:43:00.742Z,20.50
2019-02-06T06:45:31.882Z,19.73
2019-02-06T06:48:02.986Z,20.97
2019-02-06T06:50:33.807Z,20.77
2019-02-06T06:53:04.656Z,21.80
2019-02-06T06:55:36.144Z,21.50
2019-02-06T06:58:07.130Z,20.30
2019-02-06T07:00:38.311Z,20.80
2019-02-06T07:03:09.165Z,20.60
2019-02-06T07:05:39.933Z,20.93
2019-02-06T07:08:13.362Z,22.43
2019-02-06T07:10:43.286Z,20.70
2019-02-06T07:13:14.432Z,20.60
2019-02-06T07:15:46.310Z,21.90
2019-02-06T07:18:17.542Z,21.97
2019-02-06T07:20:48.626Z,20.67
2019-02-06T07:23:20.152Z,22.00
2019-02-06T07:25:51.153Z,22.33
2019-02-06T07:28:22.124Z,22.33
2019-02-06T07:30:52.896Z,22.27
2019-02-06T07:33:24.334Z,21.30
2019-02-06T07:35:55.396Z,21.67
2019-02-06T07:38:26.253Z,21.90
2019-02-06T07:40:57.023Z,21.23
2019-02-06T07:43:28.165Z,21.43
2019-02-06T07:45:59.312Z,24.40
2019-02-06T07:48:30.119Z,23.80
2019-02-06T07:51:00.955Z,26.10
2019-02-06T07:53:31.997Z,29.07
2019-02-06T07:56:02.913Z,29.40
2019-02-06T07:58:34.008Z,29.37
2019-02-06T08:01:05.600Z,29.03
2019-02-06T08:03:36.470Z,27.97
2019-02-06T08:06:07.953Z,27.27
2019-02-06T08:08:38.996Z,24.83
2019-02-06T08:11:09.824Z,24.10
2019-02-06T08:13:41.209Z,23.53
2019-02-06T08:16:12.279Z,23.90
2019-02-06T08:18:43.132Z,22.17
2019-02-06T08:21:14.122Z,22.53
2019-02-06T08:23:44.976Z,22.87
2019-02-06T08:26:19.194Z,23.90
2019-02-06T08:28:50.305Z,23.40
2019-02-06T08:31:21.320Z,24.27
2019-02-06T08:33:52.118Z,24.37
2019-02-06T08:36:23.101Z,22.47
2019-02-06T08:38:55.648Z,24.80
2019-02-06T08:41:27.450Z,26.00
2019-02-06T08:44:01.625Z,24.63
2019-02-06T08:46:31.382Z,26.10
2019-02-06T08:49:02.452Z,25.23
2019-02-06T08:51:33.324Z,24.83
2019-02-06T08:54:04.184Z,26.27
2019-02-06T08:56:35.100Z,26.13
2019-02-06T08:59:06.186Z,30.00
2019-02-06T09:01:37.347Z,28.90
2019-02-06T09:04:08.422Z,28.20
2019-02-06T09:06:39.526Z,27.63
2019-02-06T09:09:11.587Z,28.97
2019-02-06T09:11:42.831Z,27.77
2019-02-06T09:14:13.767Z,29.60
2019-02-06T09:16:44.609Z,30.63
2019-02-06T09:19:15.780Z,28.27
2019-02-06T09:21:46.542Z,31.93
2019-02-06T09:24:17.713Z,32.00
2019-02-06T09:26:48.788Z,32.57
2019-02-06T09:29:19.783Z,32.20
2019-02-06T09:31:50.561Z,30.90
2019-02-06T09:34:21.363Z,29.23
2019-02-06T09:36:52.184Z,31.13
2019-02-06T09:39:23.152Z,28.83
2019-02-06T09:41:54.444Z,29.07
2019-02-06T09:44:25.504Z,27.90
2019-02-06T09:46:57.105Z,28.13
2019-02-06T09:49:28.129Z,28.80
2019-02-06T09:51:59.117Z,27.07
2019-02-06T09:54:30.167Z,27.53
2019-02-06T09:57:01.198Z,29.10
2019-02-06T09:59:31.974Z,28.87
2019-02-06T10:02:02.745Z,28.93
2019-02-06T10:04:33.604Z,28.83
2019-02-06T10:07:04.730Z,29.60
2019-02-06T10:09:35.821Z,31.10
2019-02-06T10:12:06.891Z,33.40
2019-02-06T10:14:38.185Z,30.87
2019-02-06T10:17:09.443Z,29.67
2019-02-06T10:19:42.441Z,30.83
2019-02-06T10:22:13.555Z,28.80
2019-02-06T10:24:44.339Z,28.97
2019-02-06T10:27:15.224Z,28.83
2019-02-06T10:29:46.295Z,30.13
2019-02-06T10:32:17.297Z,28.23
2019-02-06T10:34:48.308Z,28.47
2019-02-06T10:37:19.079Z,31.13
2019-02-06T10:39:49.960Z,29.63
2019-02-06T10:42:20.801Z,29.93
2019-02-06T10:44:51.897Z,28.60
2019-02-06T10:47:22.667Z,29.30
2019-02-06T10:49:53.695Z,29.13
2019-02-06T10:52:24.832Z,29.87
2019-02-06T10:54:55.866Z,30.37
2019-02-06T10:57:26.902Z,30.10
2019-02-06T10:59:58.048Z,34.23
2019-02-06T11:02:28.832Z,31.20
2019-02-06T11:04:59.864Z,30.27
2019-02-06T11:07:31.203Z,30.10
2019-02-06T11:10:02.000Z,29.93
2019-02-06T11:12:33.564Z,29.67
2019-02-06T11:15:05.536Z,28.97
2019-02-06T11:17:36.616Z,29.63
2019-02-06T11:20:11.007Z,29.40
2019-02-06T11:22:42.173Z,28.77
2019-02-06T11:25:13.267Z,29.00
2019-02-06T11:27:44.635Z,27.67
2019-02-06T11:30:18.627Z,28.03
2019-02-06T11:32:49.743Z,28.90
2019-02-06T11:35:20.767Z,26.00
2019-02-06T11:37:51.612Z,25.47
2019-02-06T11:40:23.841Z,24.37
2019-02-06T11:42:54.915Z,23.70
2019-02-06T11:45:30.539Z,24.50
2019-02-06T11:48:01.380Z,24.53
2019-02-06T11:50:38.235Z,25.27
2019-02-06T11:53:14.472Z,25.93
2019-02-06T11:55:45.613Z,24.80
2019-02-06T11:58:17.822Z,25.27
2019-02-06T12:01:20.110Z,24.23
2019-02-06T12:03:51.250Z,25.97
2019-02-06T12:06:22.100Z,26.00
2019-02-06T12:08:53.120Z,25.63
2019-02-06T12:11:23.977Z,25.07
2019-02-06T12:13:55.035Z,25.30
2019-02-06T12:16:25.924Z,25.20
2019-02-06T12:18:57.388Z,24.50
2019-02-06T12:21:28.532Z,24.43
2019-02-06T12:23:59.576Z,24.50
2019-02-06T12:26:30.461Z,23.70
2019-02-06T12:29:01.491Z,22.80
2019-02-06T12:31:32.341Z,21.97
2019-02-06T12:34:03.176Z,21.20
2019-02-06T12:36:36.870Z,20.13
2019-02-06T12:39:10.132Z,20.63
2019-02-06T12:41:41.092Z,20.77
2019-02-06T12:44:11.848Z,20.43
2019-02-06T12:46:43.150Z,20.47
2019-02-06T12:49:14.602Z,20.20
2019-02-06T12:51:45.536Z,21.03
2019-02-06T12:54:16.705Z,18.83
2019-02-06T12:56:47.574Z,20.63
2019-02-06T12:59:19.522Z,21.23
2019-02-06T13:01:50.415Z,21.03
2019-02-06T13:04:21.473Z,20.43
2019-02-06T13:06:52.459Z,21.00
2019-02-06T13:09:23.522Z,20.93
2019-02-06T13:11:54.305Z,22.47
2019-02-06T13:14:25.548Z,20.97
2019-02-06T13:16:56.271Z,21.70
2019-02-06T13:19:27.250Z,20.90
2019-02-06T13:21:58.332Z,21.23
2019-02-06T13:24:29.164Z,21.07
2019-02-06T13:27:00.123Z,20.50
2019-02-06T13:29:31.112Z,20.17
2019-02-06T13:32:02.002Z,19.33
2019-02-06T13:34:33.120Z,20.17
2019-02-06T13:37:04.209Z,20.23
2019-02-06T13:39:35.518Z,22.07
2019-02-06T13:42:06.871Z,21.77
2019-02-06T13:44:37.948Z,21.63
2019-02-06T13:47:09.086Z,21.87
2019-02-06T13:49:39.887Z,21.10
2019-02-06T13:52:11.215Z,22.20
2019-02-06T13:54:42.479Z,22.07
2019-02-06T13:57:13.265Z,22.27
2019-02-06T13:59:44.018Z,22.50
2019-02-06T14:02:14.950Z,21.77
2019-02-06T14:04:45.786Z,22.50
2019-02-06T14:07:16.655Z,21.23
2019-02-06T14:09:48.156Z,21.63
2019-02-06T14:12:19.199Z,21.53
2019-02-06T14:14:50.305Z,22.23
2019-02-06T14:17:21.628Z,24.03
2019-02-06T14:19:52.469Z,23.00
2019-02-06T14:22:23.836Z,23.50
2019-02-06T14:25:00.308Z,23.47
2019-02-06T14:27:49.126Z,23.40
2019-02-06T14:30:29.711Z,24.67
2019-02-06T14:33:44.920Z,25.67
2019-02-06T14:37:06.490Z,26.40
2019-02-06T14:39:48.547Z,24.17
2019-02-06T14:42:36.138Z,24.53
2019-02-06T14:45:43.919Z,25.10
2019-02-06T14:48:57.383Z,25.63
2019-02-06T14:52:17.575Z,25.13
2019-02-06T14:55:22.754Z,27.13
2019-02-06T14:58:33.485Z,26.70
2019-02-06T15:01:25.774Z,32.97
2019-02-06T15:04:43.896Z,26.93
2019-02-06T15:07:33.979Z,27.83
2019-02-06T15:10:54.230Z,26.80
2019-02-06T15:14:00.847Z,26.97
2019-02-06T15:17:23.989Z,27.67
2019-02-06T15:20:19.496Z,30.27
2019-02-06T15:23:40.131Z,30.67
2019-02-06T15:26:29.263Z,27.33
2019-02-06T15:29:38.151Z,27.40
2019-02-06T15:32:46.807Z,27.60
2019-02-06T15:35:53.635Z,25.33
2019-02-06T15:39:05.805Z,25.17
2019-02-06T15:41:55.576Z,24.70
2019-02-06T15:44:49.364Z,25.30
2019-02-06T15:47:58.289Z,25.93
2019-02-06T15:50:57.158Z,25.70
2019-02-06T15:54:11.129Z,27.50
2019-02-06T15:57:22.554Z,34.30
2019-02-06T16:00:46.799Z,33.37
2019-02-06T16:03:58.417Z,33.73
2019-02-06T16:07:16.324Z,38.43
2019-02-06T16:10:28.064Z,35.60
2019-02-06T16:13:24.498Z,30.43
2019-02-06T16:16:30.844Z,29.93
2019-02-06T16:19:22.208Z,26.13
2019-02-06T16:22:24.207Z,25.97
2019-02-06T16:25:20.984Z,27.13
2019-02-06T16:28:01.017Z,28.17
2019-02-06T16:31:22.548Z,27.57
2019-02-06T16:34:43.676Z,27.03
2019-02-06T16:37:52.924Z,27.60
2019-02-06T16:41:01.723Z,28.63
2019-02-06T16:43:48.640Z,27.43
2019-02-06T16:46:34.747Z,28.97
2019-02-06T16:49:44.142Z,27.87
2019-02-06T16:53:00.394Z,27.53
2019-02-06T16:56:06.863Z,27.07
2019-02-06T16:59:11.484Z,28.10
2019-02-06T17:02:06.639Z,27.73
2019-02-06T17:05:01.496Z,28.90
2019-02-06T17:08:14.516Z,27.90
2019-02-06T17:11:06.702Z,28.43
2019-02-06T17:14:14.368Z,28.33
2019-02-06T17:17:19.962Z,28.53
2019-02-06T17:20:19.111Z,28.83
2019-02-06T17:23:11.963Z,28.43
2019-02-06T17:26:22.392Z,29.03
2019-02-06T17:29:12.175Z,29.53
2019-02-06T17:31:59.647Z,28.33
2019-02-06T17:34:46.390Z,28.60
2019-02-06T17:37:55.989Z,28.40
2019-02-06T17:40:49.771Z,28.60
2019-02-06T17:43:59.059Z,27.77
2019-02-06T17:47:01.680Z,30.50
2019-02-06T17:50:06.235Z,28.03
2019-02-06T17:53:19.915Z,29.23
2019-02-06T17:55:51.929Z,29.13
2019-02-06T17:58:22.979Z,28.43
2019-02-06T18:00:57.640Z,27.60
2019-02-06T18:03:31.487Z,29.03
2019-02-06T18:06:02.803Z,29.97
2019-02-06T18:08:33.879Z,31.93
2019-02-06T18:11:05.038Z,29.23
2019-02-06T18:13:36.531Z,28.30
2019-02-06T18:16:07.752Z,28.13
2019-02-06T18:18:38.588Z,27.17
2019-02-06T18:21:09.577Z,27.43
2019-02-06T18:23:40.903Z,26.73
2019-02-06T18:26:12.333Z,26.47
2019-02-06T18:28:43.216Z,25.50
2019-02-06T18:31:14.586Z,25.80
2019-02-06T18:33:45.559Z,25.27
2019-02-06T18:36:16.635Z,25.90
2019-02-06T18:38:49.719Z,22.83
2019-02-06T18:41:20.914Z,24.13
2019-02-06T18:43:52.072Z,24.00
2019-02-06T18:46:23.198Z,24.07
2019-02-06T18:48:54.121Z,24.77
2019-02-06T18:51:25.309Z,24.37
2019-02-06T18:53:56.384Z,22.90
2019-02-06T18:56:27.421Z,23.10
2019-02-06T18:58:58.417Z,23.03
2019-02-06T19:01:30.007Z,23.00
2019-02-06T19:04:01.476Z,21.47
2019-02-06T19:06:32.526Z,21.93
2019-02-06T19:09:05.775Z,22.43
2019-02-06T19:11:37.968Z,21.80
2019-02-06T19:14:09.488Z,21.77
2019-02-06T19:16:40.880Z,20.77
2019-02-06T19:19:11.920Z,21.10
2019-02-06T19:21:42.734Z,20.60
2019-02-06T19:24:13.570Z,19.90
2019-02-06T19:26:44.699Z,20.20
2019-02-06T19:29:15.946Z,19.53
2019-02-06T19:31:47.436Z,18.90
2019-02-06T19:34:18.510Z,17.30
2019-02-06T19:36:49.746Z,16.93
2019-02-06T19:39:20.592Z,15.13
2019-02-06T19:41:51.439Z,16.00
2019-02-06T19:44:22.330Z,16.10
2019-02-06T19:46:53.596Z,14.77
2019-02-06T19:49:24.608Z,15.57
2019-02-06T19:51:56.160Z,15.33
2019-02-06T19:54:27.177Z,15.63
2019-02-06T19:56:58.489Z,17.33
2019-02-06T19:59:29.268Z,17.43
2019-02-06T20:02:00.427Z,17.40
2019-02-06T20:04:31.479Z,18.47
2019-02-06T20:07:03.238Z,18.53
2019-02-06T20:09:34.579Z,18.63
2019-02-06T20:12:05.688Z,19.03
2019-02-06T20:14:36.751Z,19.47
2019-02-06T20:17:08.067Z,19.30
2019-02-06T20:19:39.192Z,18.13
2019-02-06T20:22:10.127Z,18.07
2019-02-06T20:24:41.398Z,17.97
2019-02-06T20:27:12.647Z,18.73
2019-02-06T20:29:43.390Z,18.23
2019-02-06T20:32:14.402Z,18.47
2019-02-06T20:34:45.645Z,18.63
2019-02-06T20:37:16.436Z,18.53
2019-02-06T20:39:47.299Z,18.30
2019-02-06T20:42:18.160Z,18.33
2019-02-06T20:44:48.925Z,17.17
2019-02-06T20:47:19.948Z,17.70
2019-02-06T20:49:50.851Z,17.20
2019-02-06T20:52:23.629Z,16.97
2019-02-06T20:54:54.710Z,16.53
2019-02-06T20:57:25.928Z,16.80
2019-02-06T20:59:57.116Z,18.13
2019-02-06T21:02:29.547Z,16.50
2019-02-06T21:05:00.872Z,16.37
2019-02-06T21:07:31.883Z,16.57
2019-02-06T21:10:02.957Z,15.67
2019-02-06T21:12:34.314Z,15.93
2019-02-06T21:15:05.945Z,15.67
2019-02-06T21:17:36.940Z,16.67
2019-02-06T21:20:10.486Z,18.43
2019-02-06T21:22:41.569Z,21.53
2019-02-06T21:25:13.850Z,18.83
2019-02-06T21:27:44.890Z,17.13
2019-02-06T21:30:20.919Z,16.07
2019-02-06T21:32:51.796Z,15.67
2019-02-06T21:35:22.619Z,17.43
2019-02-06T21:37:53.752Z,15.97
2019-02-06T21:40:26.437Z,15.43
2019-02-06T21:42:57.702Z,16.57
2019-02-06T21:45:28.920Z,16.03
2019-02-06T21:48:00.069Z,16.90
2019-02-06T21:50:31.312Z,19.27
2019-02-06T21:53:02.353Z,17.40
2019-02-06T21:55:33.292Z,15.57
2019-02-06T21:58:04.649Z,15.40
2019-02-06T22:00:39.375Z,14.40
2019-02-06T22:03:10.975Z,14.80
2019-02-06T22:05:42.077Z,15.33
2019-02-06T22:08:13.156Z,15.50
2019-02-06T22:10:43.974Z,15.13
2019-02-06T22:13:15.094Z,14.77
2019-02-06T22:15:46.915Z,15.07
2019-02-06T22:18:18.001Z,14.77
2019-02-06T22:20:49.147Z,15.50
2019-02-06T22:23:20.202Z,14.77
2019-02-06T22:25:51.079Z,15.10
2019-02-06T22:28:22.243Z,17.27
2019-02-06T22:30:53.597Z,19.07
2019-02-06T22:33:24.485Z,19.30
2019-02-06T22:35:55.729Z,20.47
2019-02-06T22:38:26.876Z,19.63
2019-02-06T22:40:57.993Z,18.97
2019-02-06T22:43:29.057Z,19.53
2019-02-06T22:46:00.788Z,19.80
2019-02-06T22:48:31.827Z,19.67
2019-02-06T22:51:02.594Z,17.63
2019-02-06T22:53:33.383Z,16.17
2019-02-06T22:56:05.059Z,15.93
2019-02-06T22:58:35.846Z,15.43
2019-02-06T23:01:22.955Z,16.67
2019-02-06T23:03:53.881Z,16.73
2019-02-06T23:06:25.303Z,17.73
2019-02-06T23:08:56.452Z,16.47
2019-02-06T23:11:27.302Z,16.47
2019-02-06T23:13:58.402Z,17.43
2019-02-06T23:16:29.240Z,16.60
2019-02-06T23:19:00.334Z,17.10
2019-02-06T23:21:31.426Z,16.17
2019-02-06T23:24:02.509Z,16.23
2019-02-06T23:26:33.491Z,16.00
2019-02-06T23:29:04.861Z,16.60
2019-02-06T23:31:35.963Z,16.20
2019-02-06T23:34:06.891Z,16.47
2019-02-06T23:36:38.052Z,17.33
2019-02-06T23:39:17.393Z,17.20
2019-02-06T23:41:48.234Z,20.10
2019-02-06T23:44:28.666Z,20.00
2019-02-06T23:46:55.958Z,20.13
2019-02-06T23:49:26.082Z,21.67
2019-02-06T23:51:57.071Z,21.43
2019-02-06T23:54:28.351Z,21.87
2019-02-06T23:56:59.259Z,22.70
2019-02-06T23:59:30.369Z,24.83
